createdAt,value
2018-08-30T00:01:03.773Z,96.30
2018-08-30T00:04:28.310Z,96.50
2018-08-30T00:06:10.398Z,96.47
2018-08-30T00:07:47.390Z,96.31
2018-08-30T00:09:27.642Z,96.70
2018-08-30T00:11:03.548Z,96.85
2018-08-30T00:12:42.195Z,96.55
2018-08-30T00:14:19.062Z,97.01
2018-08-30T00:15:58.510Z,97.04
2018-08-30T00:17:37.626Z,96.21
2018-08-30T00:20:57.632Z,96.42
2018-08-30T00:22:35.506Z,97.18
2018-08-30T00:24:10.682Z,97.16
2018-08-30T00:25:46.290Z,97.12
2018-08-30T00:27:23.403Z,97.04
2018-08-30T00:28:58.594Z,96.17
2018-08-30T00:30:39.719Z,96.99
2018-08-30T00:32:18.056Z,96.66
2018-08-30T00:34:04.579Z,96.99
2018-08-30T00:35:41.550Z,96.88
2018-08-30T00:37:16.884Z,97.14
2018-08-30T00:38:53.504Z,96.54
2018-08-30T00:40:31.871Z,95.99
2018-08-30T00:42:08.376Z,96.89
2018-08-30T00:43:43.601Z,96.81
2018-08-30T00:45:20.289Z,96.86
2018-08-30T00:46:57.205Z,97.11
2018-08-30T00:48:37.553Z,97.12
2018-08-30T00:50:14.540Z,96.69
2018-08-30T00:51:54.697Z,97.65
2018-08-30T00:53:33.467Z,96.57
2018-08-30T00:55:09.887Z,96.72
2018-08-30T00:56:51.358Z,97.08
2018-08-30T00:58:33.736Z,96.74
2018-08-30T01:00:12.922Z,96.63
2018-08-30T01:01:48.073Z,96.52
2018-08-30T01:03:31.352Z,96.67
2018-08-30T01:05:07.641Z,97.17
2018-08-30T01:06:45.268Z,96.60
2018-08-30T01:08:24.781Z,96.12
2018-08-30T01:10:05.883Z,97.16
2018-08-30T01:11:44.288Z,97.22
2018-08-30T01:13:20.624Z,97.12
2018-08-30T01:14:55.772Z,96.34
2018-08-30T01:16:31.151Z,97.73
2018-08-30T01:18:10.153Z,97.29
2018-08-30T01:19:46.162Z,97.65
2018-08-30T01:21:35.590Z,97.17
2018-08-30T01:23:12.323Z,97.31
2018-08-30T01:24:49.001Z,97.49
2018-08-30T01:26:27.397Z,97.32
2018-08-30T01:28:05.021Z,97.15
2018-08-30T01:29:41.614Z,97.57
2018-08-30T01:31:18.090Z,97.34
2018-08-30T01:32:53.158Z,97.25
2018-08-30T01:34:29.246Z,97.05
2018-08-30T01:36:04.724Z,97.14
2018-08-30T01:37:40.047Z,97.44
2018-08-30T01:39:14.937Z,97.37
2018-08-30T01:40:49.849Z,97.76
2018-08-30T01:42:25.280Z,97.13
2018-08-30T01:44:02.049Z,97.14
2018-08-30T01:45:38.755Z,98.04
2018-08-30T01:47:13.867Z,98.21
2018-08-30T01:48:48.994Z,98.17
2018-08-30T01:50:24.362Z,97.48
2018-08-30T01:51:59.494Z,97.61
2018-08-30T01:53:35.873Z,97.27
2018-08-30T01:55:11.990Z,97.62
2018-08-30T01:56:47.244Z,97.51
2018-08-30T01:58:22.459Z,97.46
2018-08-30T01:59:57.750Z,97.86
2018-08-30T02:01:33.370Z,97.49
2018-08-30T02:03:08.272Z,97.28
2018-08-30T02:04:44.013Z,98.14
2018-08-30T02:06:19.192Z,97.19
2018-08-30T02:07:54.253Z,97.89
2018-08-30T02:09:30.746Z,97.37
2018-08-30T02:11:06.265Z,98.04
2018-08-30T02:12:42.164Z,97.28
2018-08-30T02:14:17.599Z,97.81
2018-08-30T02:15:53.614Z,97.79
2018-08-30T02:17:29.259Z,98.10
2018-08-30T02:19:04.557Z,97.29
2018-08-30T02:20:39.592Z,98.37
2018-08-30T02:22:14.890Z,97.39
2018-08-30T02:23:50.637Z,98.04
2018-08-30T02:25:26.942Z,97.11
2018-08-30T02:27:02.166Z,97.16
2018-08-30T02:28:38.414Z,97.57
2018-08-30T02:30:15.227Z,96.98
2018-08-30T02:31:50.689Z,97.72
2018-08-30T02:33:25.669Z,97.27
2018-08-30T02:35:00.978Z,97.25
2018-08-30T02:36:36.555Z,97.66
2018-08-30T02:38:11.651Z,97.43
2018-08-30T02:39:47.243Z,97.59
2018-08-30T02:41:22.276Z,98.17
2018-08-30T02:42:57.195Z,97.86
2018-08-30T02:44:32.539Z,98.01
2018-08-30T02:46:08.529Z,97.69
2018-08-30T02:47:45.022Z,97.58
2018-08-30T02:49:20.168Z,98.01
2018-08-30T02:50:56.276Z,97.54
2018-08-30T02:52:34.551Z,97.90
2018-08-30T02:54:09.898Z,97.12
2018-08-30T02:55:45.410Z,98.08
2018-08-30T02:57:21.498Z,97.51
2018-08-30T02:58:56.478Z,97.82
2018-08-30T03:00:32.095Z,97.93
2018-08-30T03:02:08.634Z,97.46
2018-08-30T03:03:53.421Z,97.71
2018-08-30T03:05:28.673Z,97.69
2018-08-30T03:07:03.968Z,98.20
2018-08-30T03:08:39.305Z,97.80
2018-08-30T03:10:14.431Z,97.58
2018-08-30T03:11:49.804Z,97.55
2018-08-30T03:13:25.047Z,97.25
2018-08-30T03:15:09.931Z,97.27
2018-08-30T03:16:48.730Z,98.33
2018-08-30T03:18:23.850Z,97.80
2018-08-30T03:19:59.389Z,97.96
2018-08-30T03:21:34.984Z,97.77
2018-08-30T03:23:10.214Z,97.56
2018-08-30T03:24:45.452Z,97.74
2018-08-30T03:26:21.097Z,97.19
2018-08-30T03:27:56.050Z,97.51
2018-08-30T03:29:30.990Z,97.79
2018-08-30T03:31:06.422Z,97.79
2018-08-30T03:32:41.611Z,97.51
2018-08-30T03:34:16.972Z,97.36
2018-08-30T03:35:52.033Z,97.42
2018-08-30T03:37:27.231Z,98.00
2018-08-30T03:39:02.212Z,97.75
2018-08-30T03:40:37.563Z,97.40
2018-08-30T03:42:12.962Z,97.79
2018-08-30T03:43:47.931Z,97.98
2018-08-30T03:45:23.018Z,98.09
2018-08-30T03:46:58.098Z,98.04
2018-08-30T03:48:32.993Z,97.12
2018-08-30T03:50:08.468Z,98.00
2018-08-30T03:51:43.534Z,97.48
2018-08-30T03:53:18.552Z,97.35
2018-08-30T03:54:54.862Z,98.07
2018-08-30T03:56:29.879Z,97.82
2018-08-30T03:58:05.621Z,97.14
2018-08-30T03:59:40.654Z,97.80
2018-08-30T04:01:16.908Z,97.40
2018-08-30T04:02:52.021Z,97.72
2018-08-30T04:04:28.014Z,97.45
2018-08-30T04:06:03.847Z,97.92
2018-08-30T04:07:39.184Z,97.49
2018-08-30T04:09:14.580Z,97.90
2018-08-30T04:10:51.741Z,97.58
2018-08-30T04:12:27.034Z,97.53
2018-08-30T04:14:05.706Z,97.88
2018-08-30T04:15:41.110Z,97.69
2018-08-30T04:17:16.222Z,97.27
2018-08-30T04:18:57.258Z,97.68
2018-08-30T04:20:32.655Z,97.40
2018-08-30T04:22:08.339Z,97.48
2018-08-30T04:23:43.354Z,97.78
2018-08-30T04:25:19.765Z,97.94
2018-08-30T04:26:55.065Z,97.44
2018-08-30T04:28:35.449Z,97.55
2018-08-30T04:30:10.566Z,97.31
2018-08-30T04:31:45.730Z,97.71
2018-08-30T04:33:20.739Z,98.01
2018-08-30T04:34:57.482Z,97.55
2018-08-30T04:36:35.698Z,97.01
2018-08-30T04:38:11.542Z,97.75
2018-08-30T04:39:46.776Z,98.05
2018-08-30T04:41:26.563Z,97.74
2018-08-30T04:43:01.865Z,97.24
2018-08-30T04:44:37.257Z,97.72
2018-08-30T04:46:12.248Z,97.53
2018-08-30T04:47:48.123Z,97.50
2018-08-30T04:49:23.799Z,97.71
2018-08-30T04:51:05.098Z,98.15
2018-08-30T04:52:40.293Z,97.83
2018-08-30T04:54:15.331Z,97.64
2018-08-30T04:55:50.654Z,97.45
2018-08-30T04:57:25.568Z,98.06
2018-08-30T04:59:00.817Z,97.97
2018-08-30T05:01:45.859Z,97.83
2018-08-30T05:03:23.374Z,97.74
2018-08-30T05:05:05.672Z,97.71
2018-08-30T05:06:47.575Z,97.16
2018-08-30T05:08:23.273Z,98.43
2018-08-30T05:10:07.673Z,97.70
2018-08-30T05:11:45.307Z,97.78
2018-08-30T05:13:22.141Z,96.99
2018-08-30T05:15:04.192Z,97.48
2018-08-30T05:16:40.558Z,97.81
2018-08-30T05:18:15.695Z,97.96
2018-08-30T05:19:52.017Z,97.83
2018-08-30T05:21:30.775Z,97.78
2018-08-30T05:23:06.281Z,97.76
2018-08-30T05:24:46.525Z,98.15
2018-08-30T05:26:28.547Z,97.35
2018-08-30T05:28:05.421Z,97.46
2018-08-30T05:29:41.161Z,96.85
2018-08-30T05:31:19.053Z,97.38
2018-08-30T05:32:55.234Z,97.87
2018-08-30T05:34:31.852Z,97.63
2018-08-30T05:36:07.850Z,97.47
2018-08-30T05:37:44.457Z,98.07
2018-08-30T05:39:22.059Z,97.60
2018-08-30T05:40:59.024Z,97.86
2018-08-30T05:42:38.518Z,97.81
2018-08-30T05:44:15.324Z,97.61
2018-08-30T05:45:53.603Z,98.12
2018-08-30T05:47:31.883Z,97.84
2018-08-30T05:49:07.561Z,97.85
2018-08-30T05:50:44.294Z,97.86
2018-08-30T05:52:20.096Z,97.87
2018-08-30T05:53:56.396Z,97.83
2018-08-30T05:55:34.065Z,97.64
2018-08-30T05:57:11.596Z,97.42
2018-08-30T05:58:47.724Z,97.66
2018-08-30T06:00:23.618Z,97.90
2018-08-30T06:01:59.502Z,97.94
2018-08-30T06:03:35.375Z,97.95
2018-08-30T06:05:12.031Z,97.70
2018-08-30T06:06:48.109Z,97.96
2018-08-30T06:08:25.266Z,98.24
2018-08-30T06:10:01.408Z,97.94
2018-08-30T06:11:37.394Z,97.76
2018-08-30T06:13:13.312Z,98.28
2018-08-30T06:14:49.563Z,97.77
2018-08-30T06:16:26.719Z,97.77
2018-08-30T06:18:03.101Z,97.45
2018-08-30T06:19:39.801Z,97.99
2018-08-30T06:21:15.811Z,98.19
2018-08-30T06:22:51.494Z,98.20
2018-08-30T06:24:28.471Z,97.72
2018-08-30T06:26:04.414Z,97.98
2018-08-30T06:27:40.875Z,97.32
2018-08-30T06:29:17.276Z,97.65
2018-08-30T06:30:53.110Z,97.60
2018-08-30T06:32:29.308Z,97.65
2018-08-30T06:34:05.910Z,97.71
2018-08-30T06:35:41.736Z,97.89
2018-08-30T06:37:19.217Z,97.70
2018-08-30T06:38:57.444Z,97.87
2018-08-30T06:40:33.703Z,97.58
2018-08-30T06:42:09.499Z,97.68
2018-08-30T06:43:49.066Z,97.57
2018-08-30T06:45:27.831Z,97.31
2018-08-30T06:47:07.724Z,97.53
2018-08-30T06:48:44.560Z,97.65
2018-08-30T06:50:20.555Z,97.52
2018-08-30T06:51:56.251Z,97.53
2018-08-30T06:53:34.358Z,97.58
2018-08-30T06:55:10.646Z,97.20
2018-08-30T06:56:46.713Z,97.12
2018-08-30T06:58:23.021Z,97.53
2018-08-30T07:00:05.360Z,97.46
2018-08-30T07:01:41.200Z,98.33
2018-08-30T07:03:17.623Z,97.19
2018-08-30T07:04:53.950Z,97.60
2018-08-30T07:06:29.719Z,97.79
2018-08-30T07:08:07.784Z,97.62
2018-08-30T07:09:44.523Z,97.63
2018-08-30T07:11:20.245Z,97.38
2018-08-30T07:12:56.529Z,97.30
2018-08-30T07:14:32.818Z,97.20
2018-08-30T07:16:08.729Z,97.48
2018-08-30T07:17:47.318Z,97.36
2018-08-30T07:19:25.727Z,97.07
2018-08-30T07:21:02.144Z,96.97
2018-08-30T07:22:38.017Z,97.48
2018-08-30T07:24:13.506Z,97.57
2018-08-30T07:25:51.253Z,97.56
2018-08-30T07:27:28.261Z,96.90
2018-08-30T07:29:08.416Z,97.74
2018-08-30T07:30:47.655Z,96.91
2018-08-30T07:32:24.209Z,97.37
2018-08-30T07:34:00.636Z,97.34
2018-08-30T07:35:36.829Z,96.74
2018-08-30T07:37:14.015Z,96.82
2018-08-30T07:38:53.677Z,97.30
2018-08-30T07:40:30.690Z,96.79
2018-08-30T07:42:07.357Z,97.31
2018-08-30T07:43:44.344Z,97.31
2018-08-30T07:45:21.123Z,97.05
2018-08-30T07:47:00.731Z,97.17
2018-08-30T07:48:39.136Z,96.62
2018-08-30T07:50:15.740Z,97.39
2018-08-30T07:51:52.019Z,96.84
2018-08-30T07:53:28.510Z,96.83
2018-08-30T07:55:04.334Z,97.15
2018-08-30T07:56:40.205Z,96.53
2018-08-30T07:58:17.393Z,96.81
2018-08-30T07:59:53.346Z,97.02
2018-08-30T08:09:23.325Z,97.18
2018-08-30T08:10:59.680Z,96.86
2018-08-30T08:12:37.418Z,96.63
2018-08-30T08:14:14.136Z,96.46
2018-08-30T08:15:52.087Z,96.59
2018-08-30T08:17:28.179Z,96.71
2018-08-30T08:19:04.265Z,96.78
2018-08-30T08:20:41.015Z,96.89
2018-08-30T08:22:21.060Z,96.17
2018-08-30T08:23:57.981Z,96.81
2018-08-30T08:25:36.571Z,95.80
2018-08-30T08:27:13.903Z,95.93
2018-08-30T08:28:52.600Z,95.58
2018-08-30T08:30:31.182Z,95.80
2018-08-30T08:32:08.512Z,96.08
2018-08-30T08:33:46.399Z,95.25
2018-08-30T08:35:22.512Z,95.60
2018-08-30T08:37:00.438Z,95.38
2018-08-30T08:38:36.539Z,94.71
2018-08-30T08:40:14.680Z,94.62
2018-08-30T08:41:50.831Z,94.68
2018-08-30T08:43:27.247Z,94.71
2018-08-30T08:45:04.778Z,94.86
2018-08-30T08:46:41.224Z,94.17
2018-08-30T08:48:16.991Z,94.27
2018-08-30T08:49:53.357Z,94.50
2018-08-30T08:51:29.720Z,94.33
2018-08-30T08:53:09.620Z,94.46
2018-08-30T08:55:54.546Z,94.59
2018-08-30T08:57:29.964Z,94.19
2018-08-30T08:59:05.976Z,93.97
2018-08-30T09:00:42.749Z,93.96
2018-08-30T09:02:19.188Z,94.46
2018-08-30T09:03:55.517Z,94.30
2018-08-30T09:05:31.340Z,94.24
2018-08-30T09:07:08.546Z,94.19
2018-08-30T09:08:46.350Z,93.87
2018-08-30T09:10:23.591Z,94.07
2018-08-30T09:12:00.488Z,94.07
2018-08-30T09:13:36.268Z,92.99
2018-08-30T09:15:17.451Z,93.35
2018-08-30T09:16:54.140Z,93.19
2018-08-30T09:18:32.788Z,93.08
2018-08-30T09:20:11.356Z,92.86
2018-08-30T09:21:50.900Z,92.20
2018-08-30T09:23:26.960Z,92.27
2018-08-30T09:25:02.947Z,91.92
2018-08-30T09:26:39.789Z,91.47
2018-08-30T09:28:18.504Z,91.43
2018-08-30T09:29:55.188Z,90.27
2018-08-30T09:31:33.457Z,90.37
2018-08-30T09:33:09.995Z,89.78
2018-08-30T09:34:46.245Z,89.87
2018-08-30T09:36:23.146Z,89.45
2018-08-30T09:38:02.486Z,88.22
2018-08-30T09:39:40.326Z,87.99
2018-08-30T09:41:17.117Z,87.62
2018-08-30T09:42:53.107Z,86.87
2018-08-30T09:44:32.476Z,85.96
2018-08-30T09:46:18.751Z,86.07
2018-08-30T09:47:55.793Z,85.34
2018-08-30T09:49:35.062Z,85.47
2018-08-30T09:51:13.112Z,84.40
2018-08-30T09:52:53.287Z,84.54
2018-08-30T09:54:28.671Z,83.56
2018-08-30T09:56:05.013Z,82.97
2018-08-30T09:57:41.426Z,82.94
2018-08-30T09:59:16.660Z,82.87
2018-08-30T10:00:58.177Z,82.32
2018-08-30T10:02:35.987Z,81.60
2018-08-30T10:04:14.201Z,82.31
2018-08-30T10:05:49.711Z,81.41
2018-08-30T10:07:24.976Z,82.22
2018-08-30T10:09:03.321Z,80.70
2018-08-30T10:10:39.530Z,79.50
2018-08-30T10:12:17.316Z,79.42
2018-08-30T10:13:59.917Z,78.28
2018-08-30T10:15:35.246Z,77.01
2018-08-30T10:17:11.184Z,76.76
2018-08-30T10:18:46.809Z,76.28
2018-08-30T10:20:22.531Z,76.40
2018-08-30T10:21:58.696Z,75.26
2018-08-30T10:23:34.702Z,75.13
2018-08-30T10:25:09.722Z,74.19
2018-08-30T10:26:45.297Z,74.87
2018-08-30T10:28:20.957Z,74.29
2018-08-30T10:30:00.091Z,73.91
2018-08-30T10:31:35.613Z,72.56
2018-08-30T10:33:10.975Z,72.40
2018-08-30T10:34:49.973Z,71.22
2018-08-30T10:36:26.684Z,71.76
2018-08-30T10:38:06.418Z,71.69
2018-08-30T10:39:44.378Z,71.55
2018-08-30T10:41:25.862Z,71.96
2018-08-30T10:43:05.793Z,72.43
2018-08-30T10:44:44.401Z,72.75
2018-08-30T10:46:33.507Z,72.81
2018-08-30T10:48:19.051Z,73.09
2018-08-30T10:51:47.808Z,73.54
2018-08-30T10:53:26.434Z,73.82
2018-08-30T10:55:03.788Z,73.98
2018-08-30T10:56:40.292Z,73.76
2018-08-30T10:58:18.811Z,73.78
2018-08-30T10:59:58.361Z,74.15
2018-08-30T11:01:34.358Z,74.04
2018-08-30T11:03:09.560Z,74.35
2018-08-30T11:04:46.669Z,74.00
2018-08-30T11:06:26.886Z,74.34
2018-08-30T11:08:08.278Z,73.87
2018-08-30T11:09:43.990Z,72.21
2018-08-30T11:11:29.648Z,71.90
2018-08-30T11:13:17.270Z,70.99
2018-08-30T11:14:52.490Z,69.67
2018-08-30T11:16:28.091Z,69.54
2018-08-30T11:18:07.055Z,67.30
2018-08-30T11:19:42.296Z,66.21
2018-08-30T11:21:19.361Z,65.45
2018-08-30T11:22:56.224Z,64.81
2018-08-30T11:24:39.364Z,64.89
2018-08-30T11:26:18.420Z,65.06
2018-08-30T11:27:55.069Z,64.67
2018-08-30T11:29:36.508Z,64.92
2018-08-30T11:31:11.748Z,64.41
2018-08-30T11:32:47.077Z,65.36
2018-08-30T11:34:22.559Z,65.25
2018-08-30T11:35:57.752Z,63.55
2018-08-30T11:37:33.304Z,64.18
2018-08-30T11:39:09.253Z,64.28
2018-08-30T11:40:44.330Z,65.18
2018-08-30T11:42:19.487Z,65.16
2018-08-30T11:43:54.804Z,65.41
2018-08-30T11:45:30.086Z,65.42
2018-08-30T11:47:06.966Z,64.65
2018-08-30T11:48:43.476Z,65.73
2018-08-30T11:50:20.301Z,64.60
2018-08-30T11:51:57.035Z,64.94
2018-08-30T11:53:32.122Z,64.03
2018-08-30T11:55:08.645Z,62.97
2018-08-30T11:56:45.368Z,63.97
2018-08-30T11:58:22.144Z,62.96
2018-08-30T12:00:00.316Z,63.27
2018-08-30T12:01:40.261Z,62.58
2018-08-30T12:03:20.335Z,62.17
2018-08-30T12:04:58.895Z,61.25
2018-08-30T12:06:39.532Z,61.04
2018-08-30T12:08:17.194Z,58.20
2018-08-30T12:09:55.072Z,59.33
2018-08-30T12:11:32.196Z,59.53
2018-08-30T12:13:12.383Z,58.50
2018-08-30T12:14:50.166Z,59.03
2018-08-30T12:16:31.731Z,59.80
2018-08-30T12:18:11.920Z,58.23
2018-08-30T12:19:51.264Z,60.85
2018-08-30T12:21:33.425Z,60.79
2018-08-30T12:23:15.722Z,60.15
2018-08-30T12:24:56.512Z,60.35
2018-08-30T12:26:33.954Z,59.04
2018-08-30T12:28:11.332Z,59.57
2018-08-30T12:29:49.320Z,59.94
2018-08-30T12:31:27.702Z,57.31
2018-08-30T12:34:49.909Z,55.54
2018-08-30T12:36:28.961Z,55.96
2018-08-30T12:38:08.081Z,55.16
2018-08-30T12:39:46.154Z,54.52
2018-08-30T12:41:31.460Z,53.51
2018-08-30T12:44:51.743Z,56.29
2018-08-30T12:46:31.782Z,52.66
2018-08-30T12:48:15.635Z,52.32
2018-08-30T12:49:52.824Z,53.70
2018-08-30T12:51:32.833Z,52.33
2018-08-30T12:53:08.429Z,55.82
2018-08-30T12:54:43.779Z,55.34
2018-08-30T12:56:20.958Z,56.94
2018-08-30T12:57:58.100Z,58.87
2018-08-30T12:59:39.787Z,58.26
2018-08-30T13:01:18.558Z,58.74
2018-08-30T13:02:54.015Z,58.48
2018-08-30T13:04:31.486Z,58.33
2018-08-30T13:06:09.751Z,58.70
2018-08-30T13:07:47.116Z,59.44
2018-08-30T13:09:33.348Z,59.36
2018-08-30T13:11:16.072Z,60.14
2018-08-30T13:13:04.977Z,59.52
2018-08-30T13:14:46.825Z,58.08
2018-08-30T13:16:24.008Z,59.31
2018-08-30T13:17:59.504Z,57.93
2018-08-30T13:19:35.154Z,57.97
2018-08-30T13:21:12.952Z,58.23
2018-08-30T13:22:49.454Z,57.00
2018-08-30T13:24:27.077Z,57.24
2018-08-30T13:26:03.305Z,57.39
2018-08-30T13:27:40.710Z,54.39
2018-08-30T13:29:18.830Z,53.34
2018-08-30T13:31:12.718Z,51.32
2018-08-30T13:32:51.780Z,50.89
2018-08-30T13:34:36.474Z,51.96
2018-08-30T13:36:16.213Z,48.46
2018-08-30T13:37:54.331Z,49.89
2018-08-30T13:39:37.857Z,49.36
2018-08-30T13:41:14.645Z,47.59
2018-08-30T13:42:51.091Z,47.97
2018-08-30T13:44:30.504Z,48.14
2018-08-30T13:46:12.215Z,49.68
2018-08-30T13:47:56.460Z,49.27
2018-08-30T13:49:32.436Z,48.20
2018-08-30T13:51:10.163Z,49.68
2018-08-30T13:52:48.751Z,50.07
2018-08-30T13:54:28.607Z,51.19
2018-08-30T13:56:11.798Z,51.92
2018-08-30T13:57:52.760Z,52.53
2018-08-30T13:59:31.066Z,52.57
2018-08-30T14:01:08.922Z,54.00
2018-08-30T14:02:53.338Z,53.61
2018-08-30T14:04:46.530Z,54.11
2018-08-30T14:06:39.543Z,54.58
2018-08-30T14:08:30.257Z,54.19
2018-08-30T14:10:11.227Z,53.68
2018-08-30T14:11:49.060Z,54.16
2018-08-30T14:13:29.845Z,54.10
2018-08-30T14:15:10.101Z,51.36
2018-08-30T14:16:51.552Z,52.29
2018-08-30T14:18:28.613Z,51.59
2018-08-30T14:20:09.088Z,50.69
2018-08-30T14:21:46.750Z,52.17
2018-08-30T14:23:24.551Z,50.04
2018-08-30T14:25:02.659Z,51.99
2018-08-30T14:26:40.981Z,51.35
2018-08-30T14:28:17.230Z,52.29
2018-08-30T14:29:53.866Z,50.76
2018-08-30T14:31:34.722Z,50.64
2018-08-30T14:33:16.626Z,51.00
2018-08-30T14:34:56.591Z,52.39
2018-08-30T14:36:41.515Z,51.53
2018-08-30T14:38:20.546Z,52.26
2018-08-30T14:39:59.787Z,51.01
2018-08-30T14:41:36.973Z,51.74
2018-08-30T14:43:17.542Z,52.17
2018-08-30T14:44:58.465Z,53.11
2018-08-30T14:46:41.990Z,53.22
2018-08-30T14:48:21.765Z,52.96
2018-08-30T14:50:00.108Z,54.15
2018-08-30T14:52:46.288Z,53.36
2018-08-30T14:54:27.558Z,54.05
2018-08-30T14:56:03.689Z,53.32
2018-08-30T14:57:44.495Z,54.37
2018-08-30T14:59:25.467Z,54.41
2018-08-30T15:02:53.185Z,52.22
2018-08-30T15:04:29.790Z,53.08
2018-08-30T15:06:09.031Z,49.85
2018-08-30T15:07:45.661Z,51.09
2018-08-30T15:09:21.689Z,50.92
2018-08-30T15:11:01.428Z,49.15
2018-08-30T15:12:39.780Z,49.86
2018-08-30T15:14:20.596Z,50.39
2018-08-30T15:16:01.407Z,49.39
2018-08-30T15:17:41.645Z,49.38
2018-08-30T15:19:19.163Z,49.01
2018-08-30T15:21:01.007Z,48.01
2018-08-30T15:22:36.400Z,49.72
2018-08-30T15:24:15.209Z,48.91
2018-08-30T15:25:52.495Z,47.61
2018-08-30T15:27:31.326Z,48.81
2018-08-30T15:29:16.100Z,48.43
2018-08-30T15:30:55.461Z,46.91
2018-08-30T15:32:37.462Z,47.42
2018-08-30T15:34:17.650Z,47.93
2018-08-30T15:35:56.797Z,48.95
2018-08-30T15:37:36.400Z,48.03
2018-08-30T15:39:17.034Z,46.76
2018-08-30T15:40:58.311Z,47.23
2018-08-30T15:42:44.746Z,47.78
2018-08-30T15:44:27.592Z,47.92
2018-08-30T15:46:07.892Z,48.36
2018-08-30T15:47:46.860Z,49.17
2018-08-30T15:49:28.341Z,47.47
2018-08-30T15:51:06.990Z,48.44
2018-08-30T15:53:02.356Z,49.12
2018-08-30T15:56:47.884Z,49.76
2018-08-30T15:58:25.618Z,51.27
2018-08-30T16:00:05.480Z,50.46
2018-08-30T16:01:42.867Z,52.66
2018-08-30T16:03:23.148Z,51.64
2018-08-30T16:05:01.835Z,51.87
2018-08-30T16:07:47.816Z,51.53
2018-08-30T16:09:24.401Z,53.07
2018-08-30T16:11:00.264Z,53.44
2018-08-30T16:12:38.588Z,53.04
2018-08-30T16:14:18.918Z,53.20
2018-08-30T16:15:57.926Z,53.90
2018-08-30T16:17:35.911Z,53.72
2018-08-30T16:19:14.212Z,55.08
2018-08-30T16:20:54.699Z,53.43
2018-08-30T16:22:45.213Z,54.55
2018-08-30T16:24:22.793Z,55.59
2018-08-30T16:26:00.739Z,55.13
2018-08-30T16:27:39.861Z,55.93
2018-08-30T16:29:16.042Z,55.57
2018-08-30T16:30:53.551Z,55.38
2018-08-30T16:32:34.127Z,56.04
2018-08-30T16:34:13.808Z,56.93
2018-08-30T16:35:52.964Z,55.03
2018-08-30T16:37:32.721Z,55.83
2018-08-30T16:39:14.371Z,54.66
2018-08-30T16:40:55.348Z,55.10
2018-08-30T16:42:37.543Z,55.56
2018-08-30T16:44:15.450Z,56.13
2018-08-30T16:45:58.459Z,56.47
2018-08-30T16:47:38.247Z,55.17
2018-08-30T16:49:23.990Z,55.96
2018-08-30T16:51:02.356Z,55.86
2018-08-30T16:52:41.626Z,56.73
2018-08-30T16:54:21.298Z,56.90
2018-08-30T16:55:59.595Z,57.17
2018-08-30T16:57:38.769Z,56.34
2018-08-30T16:59:20.740Z,57.25
2018-08-30T17:00:58.342Z,56.26
2018-08-30T17:02:36.240Z,57.19
2018-08-30T17:04:16.268Z,57.45
2018-08-30T17:05:58.494Z,57.86
2018-08-30T17:11:21.869Z,57.92
2018-08-30T17:13:03.183Z,57.90
2018-08-30T17:14:42.729Z,57.88
2018-08-30T17:16:19.872Z,57.58
2018-08-30T17:17:58.205Z,58.66
2018-08-30T17:19:39.295Z,58.75
2018-08-30T17:21:19.850Z,59.02
2018-08-30T17:23:03.483Z,59.43
2018-08-30T17:24:43.601Z,59.72
2018-08-30T17:26:20.904Z,58.76
2018-08-30T17:28:00.604Z,60.02
2018-08-30T17:29:46.528Z,59.93
2018-08-30T17:31:27.835Z,60.38
2018-08-30T17:33:10.560Z,60.32
2018-08-30T17:34:56.287Z,60.50
2018-08-30T17:36:33.345Z,61.02
2018-08-30T17:38:15.394Z,60.75
2018-08-30T17:39:54.363Z,61.00
2018-08-30T17:41:31.172Z,61.79
2018-08-30T17:43:10.644Z,61.37
2018-08-30T17:44:47.390Z,61.06
2018-08-30T17:46:26.791Z,62.29
2018-08-30T17:48:04.485Z,61.66
2018-08-30T17:49:44.744Z,61.54
2018-08-30T17:51:33.163Z,62.39
2018-08-30T17:55:12.151Z,62.64
2018-08-30T17:56:49.899Z,63.44
2018-08-30T17:58:25.444Z,63.72
2018-08-30T18:00:04.337Z,63.31
2018-08-30T18:01:42.656Z,63.62
2018-08-30T18:03:21.095Z,63.80
2018-08-30T18:05:01.609Z,64.13
2018-08-30T18:06:38.591Z,64.54
2018-08-30T18:08:19.324Z,65.58
2018-08-30T18:09:57.252Z,65.48
2018-08-30T18:11:40.333Z,66.39
2018-08-30T18:13:19.373Z,67.29
2018-08-30T18:16:39.308Z,68.60
2018-08-30T18:18:16.851Z,68.65
2018-08-30T18:19:51.953Z,68.81
2018-08-30T18:21:28.855Z,68.48
2018-08-30T18:23:07.447Z,69.64
2018-08-30T18:24:47.275Z,68.92
2018-08-30T18:26:23.994Z,69.86
2018-08-30T18:29:45.621Z,69.93
2018-08-30T18:31:23.792Z,70.66
2018-08-30T18:33:06.235Z,71.21
2018-08-30T18:34:43.388Z,71.23
2018-08-30T18:36:21.902Z,71.30
2018-08-30T18:38:03.243Z,71.93
2018-08-30T18:39:42.995Z,72.53
2018-08-30T18:41:21.415Z,72.96
2018-08-30T18:43:00.346Z,72.44
2018-08-30T18:44:40.699Z,72.75
2018-08-30T18:46:21.499Z,72.33
2018-08-30T18:48:01.825Z,73.32
2018-08-30T18:49:45.041Z,72.80
2018-08-30T19:17:04.520Z,74.65
2018-08-30T19:18:52.230Z,74.37
2018-08-30T19:20:28.547Z,74.88
2018-08-30T19:22:04.306Z,75.13
2018-08-30T19:23:40.671Z,74.71
2018-08-30T19:26:29.446Z,74.83
2018-08-30T19:28:09.364Z,75.00
2018-08-30T19:29:53.246Z,75.23
2018-08-30T19:31:34.379Z,75.56
2018-08-30T19:33:15.705Z,75.05
2018-08-30T19:34:55.271Z,74.94
2018-08-30T19:36:34.480Z,75.23
2018-08-30T19:38:13.739Z,75.28
2018-08-30T19:39:51.605Z,75.73
2018-08-30T19:41:33.084Z,75.95
2018-08-30T19:43:13.224Z,75.86
2018-08-30T19:44:52.773Z,75.71
2018-08-30T19:46:37.820Z,75.71
2018-08-30T19:48:17.275Z,76.12
2018-08-30T19:49:56.299Z,76.20
2018-08-30T19:51:34.741Z,75.72
2018-08-30T19:53:17.692Z,76.70
2018-08-30T19:54:55.673Z,76.77
2018-08-30T19:56:32.379Z,76.59
2018-08-30T19:58:11.881Z,77.05
2018-08-30T19:59:56.498Z,77.46
2018-08-30T20:01:35.803Z,77.08
2018-08-30T20:03:13.179Z,78.06
2018-08-30T20:06:36.521Z,78.33
2018-08-30T20:08:17.965Z,78.46
2018-08-30T20:09:57.535Z,78.66
2018-08-30T20:11:36.432Z,79.21
2018-08-30T20:13:14.052Z,79.57
2018-08-30T20:14:53.148Z,80.17
2018-08-30T20:16:33.184Z,80.13
2018-08-30T20:18:15.358Z,80.75
2018-08-30T20:19:57.867Z,81.10
2018-08-30T20:21:39.817Z,81.68
2018-08-30T20:23:18.297Z,82.08
2018-08-30T20:24:54.967Z,82.10
2018-08-30T20:26:36.734Z,82.64
2018-08-30T20:28:16.446Z,82.19
2018-08-30T20:29:59.498Z,83.10
2018-08-30T20:31:49.261Z,82.62
2018-08-30T20:33:27.615Z,83.47
2018-08-30T20:35:07.673Z,83.85
2018-08-30T20:36:45.257Z,84.23
2018-08-30T20:38:21.970Z,83.49
2018-08-30T20:39:57.976Z,83.77
2018-08-30T20:41:35.579Z,84.33
2018-08-30T20:43:13.108Z,84.56
2018-08-30T20:44:55.043Z,84.47
2018-08-30T20:46:32.307Z,84.42
2018-08-30T20:48:15.749Z,84.96
2018-08-30T20:49:57.663Z,84.99
2018-08-30T20:51:39.214Z,85.18
2018-08-30T20:53:21.192Z,85.38
2018-08-30T20:55:01.328Z,85.67
2018-08-30T20:56:38.968Z,85.67
2018-08-30T20:58:19.416Z,86.32
2018-08-30T20:59:58.563Z,85.64
2018-08-30T21:01:38.656Z,86.05
2018-08-30T21:03:23.391Z,86.37
2018-08-30T21:05:06.263Z,86.89
2018-08-30T21:06:44.540Z,86.74
2018-08-30T21:08:25.309Z,86.96
2018-08-30T21:10:04.091Z,87.35
2018-08-30T21:11:44.173Z,86.87
2018-08-30T21:13:27.993Z,87.58
2018-08-30T21:15:15.278Z,87.75
2018-08-30T21:16:57.163Z,87.37
2018-08-30T21:18:35.562Z,87.59
2018-08-30T21:20:13.932Z,88.04
2018-08-30T21:21:55.064Z,88.25
2018-08-30T21:23:31.865Z,87.87
2018-08-30T21:25:08.122Z,88.12
2018-08-30T21:26:47.091Z,88.58
2018-08-30T21:28:24.345Z,88.15
2018-08-30T21:30:01.241Z,88.46
2018-08-30T21:31:40.417Z,88.43
2018-08-30T21:34:19.105Z,88.30
2018-08-30T21:35:57.764Z,88.75
2018-08-30T21:37:33.715Z,89.12
2018-08-30T21:39:10.305Z,88.99
2018-08-30T21:40:47.282Z,89.37
2018-08-30T21:42:23.412Z,89.26
2018-08-30T21:44:00.024Z,89.07
2018-08-30T21:45:37.118Z,89.33
2018-08-30T21:47:13.452Z,89.25
2018-08-30T21:48:49.476Z,89.74
2018-08-30T21:50:24.961Z,89.70
2018-08-30T21:52:03.542Z,89.79
2018-08-30T21:53:39.984Z,90.14
2018-08-30T21:55:16.375Z,89.98
2018-08-30T21:56:53.235Z,90.07
2018-08-30T21:58:29.188Z,90.30
2018-08-30T22:00:08.692Z,89.98
2018-08-30T22:01:46.265Z,90.61
2018-08-30T22:03:22.567Z,90.67
2018-08-30T22:04:59.955Z,90.58
2018-08-30T22:06:37.044Z,90.53
2018-08-30T22:08:13.889Z,90.12